createdAt,value
2022-11-15T00:00:54.774Z,93.60
2022-11-15T00:01:54.775Z,93.09
2022-11-15T00:02:54.734Z,93.40
2022-11-15T00:03:54.876Z,93.19
2022-11-15T00:04:54.708Z,93.50
2022-11-15T00:05:54.697Z,93.60
2022-11-15T00:06:54.722Z,94.11
2022-11-15T00:07:56.152Z,94.46
2022-11-15T00:08:54.680Z,94.56
2022-11-15T00:09:54.678Z,94.77
2022-11-15T00:10:54.634Z,94.67
2022-11-15T00:11:54.644Z,94.32
2022-11-15T00:12:54.629Z,93.50
2022-11-15T00:13:54.639Z,93.70
2022-11-15T00:14:54.607Z,94.06
2022-11-15T00:15:54.584Z,94.11
2022-11-15T00:16:54.560Z,94.32
2022-11-15T00:17:54.554Z,94.01
2022-11-15T00:18:54.535Z,94.11
2022-11-15T00:19:54.534Z,94.52
2022-11-15T00:20:54.537Z,94.32
2022-11-15T00:21:54.503Z,93.35
2022-11-15T00:22:54.493Z,93.55
2022-11-15T00:23:54.493Z,93.05
2022-11-15T00:24:54.474Z,92.94
2022-11-15T00:25:54.463Z,93.25
2022-11-15T00:26:54.478Z,93.05
2022-11-15T00:27:54.455Z,91.98
2022-11-15T00:28:54.445Z,91.16
2022-11-15T00:29:54.446Z,90.75
2022-11-15T00:30:54.425Z,91.47
2022-11-15T00:31:54.393Z,90.92
2022-11-15T00:32:54.434Z,90.10
2022-11-15T00:33:54.395Z,88.98
2022-11-15T00:34:54.374Z,88.88
2022-11-15T00:35:54.350Z,89.08
2022-11-15T00:36:54.326Z,89.18
2022-11-15T00:37:54.324Z,89.69
2022-11-15T00:38:54.345Z,88.88
2022-11-15T00:39:54.292Z,88.67
2022-11-15T00:40:54.288Z,89.18
2022-11-15T00:41:54.273Z,89.59
2022-11-15T00:42:54.262Z,90.10
2022-11-15T00:43:54.252Z,90.00
2022-11-15T00:44:54.327Z,90.00
2022-11-15T00:45:54.227Z,89.90
2022-11-15T00:46:54.210Z,89.25
2022-11-15T00:47:54.206Z,89.39
2022-11-15T00:48:54.243Z,89.59
2022-11-15T00:49:54.213Z,89.90
2022-11-15T00:50:54.165Z,89.59
2022-11-15T00:51:54.162Z,89.79
2022-11-15T00:52:54.157Z,90.10
2022-11-15T00:53:54.142Z,89.55
2022-11-15T00:54:54.138Z,89.14
2022-11-15T00:55:54.165Z,88.22
2022-11-15T00:56:54.116Z,88.53
2022-11-15T00:57:54.095Z,88.53
2022-11-15T00:58:54.103Z,88.53
2022-11-15T00:59:54.073Z,88.73
2022-11-15T01:00:54.139Z,88.84
2022-11-15T01:01:54.104Z,90.00
2022-11-15T01:02:54.032Z,89.34
2022-11-15T01:03:58.620Z,88.59
2022-11-15T01:04:55.016Z,87.47
2022-11-15T01:05:53.993Z,87.16
2022-11-15T01:06:54.055Z,86.96
2022-11-15T01:07:54.014Z,87.06
2022-11-15T01:08:53.966Z,86.45
2022-11-15T01:09:53.958Z,86.24
2022-11-15T01:10:53.943Z,86.86
2022-11-15T01:11:53.923Z,87.06
2022-11-15T01:12:53.967Z,87.16
2022-11-15T01:13:53.902Z,87.92
2022-11-15T01:14:53.894Z,88.22
2022-11-15T01:15:53.882Z,88.53
2022-11-15T01:16:53.881Z,88.43
2022-11-15T01:17:53.869Z,88.43
2022-11-15T01:18:53.887Z,88.12
2022-11-15T01:19:53.833Z,88.22
2022-11-15T01:20:53.826Z,88.43
2022-11-15T01:21:53.812Z,88.73
2022-11-15T01:22:54.125Z,89.14
2022-11-15T01:23:53.791Z,89.65
2022-11-15T01:24:53.802Z,89.55
2022-11-15T01:25:53.762Z,89.75
2022-11-15T01:26:53.762Z,88.84
2022-11-15T01:27:53.757Z,88.73
2022-11-15T01:28:53.740Z,88.53
2022-11-15T01:29:53.723Z,88.73
2022-11-15T01:30:53.753Z,88.43
2022-11-15T01:31:53.703Z,88.43
2022-11-15T01:32:53.694Z,87.98
2022-11-15T01:33:53.673Z,88.53
2022-11-15T01:34:53.683Z,88.84
2022-11-15T01:35:53.651Z,88.08
2022-11-15T01:36:53.664Z,87.57
2022-11-15T01:37:53.632Z,87.98
2022-11-15T01:38:53.613Z,87.61
2022-11-15T01:39:53.611Z,88.63
2022-11-15T01:40:53.594Z,88.93
2022-11-15T01:41:53.593Z,89.14
2022-11-15T01:42:53.668Z,88.53
2022-11-15T01:43:53.562Z,88.08
2022-11-15T01:44:53.542Z,87.88
2022-11-15T01:45:53.536Z,86.96
2022-11-15T01:46:53.594Z,87.47
2022-11-15T01:47:53.561Z,87.06
2022-11-15T01:48:53.521Z,87.47
2022-11-15T01:49:53.494Z,87.26
2022-11-15T01:50:53.479Z,87.98
2022-11-15T01:51:53.488Z,87.77
2022-11-15T01:52:53.454Z,86.96
2022-11-15T01:53:53.443Z,86.76
2022-11-15T01:54:54.047Z,86.41
2022-11-15T01:55:53.435Z,86.10
2022-11-15T01:56:53.423Z,86.45
2022-11-15T01:57:53.402Z,87.06
2022-11-15T01:58:53.385Z,87.16
2022-11-15T01:59:53.405Z,86.21
2022-11-15T02:00:53.405Z,85.39
2022-11-15T02:01:53.366Z,86.45
2022-11-15T02:02:53.365Z,87.16
2022-11-15T02:03:53.332Z,87.16
2022-11-15T02:04:53.366Z,87.67
2022-11-15T02:05:53.334Z,87.47
2022-11-15T02:06:53.378Z,87.37
2022-11-15T02:07:53.299Z,87.57
2022-11-15T02:08:53.275Z,87.06
2022-11-15T02:09:53.275Z,87.26
2022-11-15T02:10:53.285Z,87.57
2022-11-15T02:11:53.273Z,87.06
2022-11-15T02:12:53.248Z,87.26
2022-11-15T02:13:53.232Z,86.21
2022-11-15T02:14:53.214Z,86.21
2022-11-15T02:15:53.242Z,86.65
2022-11-15T02:16:53.187Z,86.96
2022-11-15T02:17:53.184Z,86.96
2022-11-15T02:18:53.155Z,86.65
2022-11-15T02:19:53.184Z,86.65
2022-11-15T02:20:53.131Z,86.92
2022-11-15T02:21:53.193Z,86.10
2022-11-15T02:22:53.151Z,85.80
2022-11-15T02:23:53.113Z,85.25
2022-11-15T02:24:53.082Z,85.14
2022-11-15T02:25:53.255Z,84.58
2022-11-15T02:26:53.082Z,85.39
2022-11-15T02:27:53.061Z,84.64
2022-11-15T02:28:53.065Z,84.53
2022-11-15T02:29:53.335Z,83.92
2022-11-15T02:30:53.021Z,83.58
2022-11-15T02:31:53.027Z,82.97
2022-11-15T02:32:53.027Z,84.03
2022-11-15T02:33:53.036Z,84.23
2022-11-15T02:34:53.007Z,83.82
2022-11-15T02:35:52.966Z,83.82
2022-11-15T02:36:52.950Z,83.48
2022-11-15T02:37:53.003Z,83.48
2022-11-15T02:38:52.936Z,83.37
2022-11-15T02:39:52.964Z,83.17
2022-11-15T02:40:52.904Z,83.51
2022-11-15T02:41:52.906Z,84.23
2022-11-15T02:42:52.888Z,84.03
2022-11-15T02:43:52.874Z,84.12
2022-11-15T02:44:52.898Z,84.74
2022-11-15T02:45:52.909Z,84.64
2022-11-15T02:46:52.835Z,84.53
2022-11-15T02:47:52.832Z,85.28
2022-11-15T02:48:52.813Z,84.84
2022-11-15T02:49:53.033Z,84.94
2022-11-15T02:50:52.798Z,84.64
2022-11-15T02:51:52.863Z,84.64
2022-11-15T02:52:52.772Z,84.23
2022-11-15T02:53:52.763Z,84.74
2022-11-15T02:54:52.746Z,84.53
2022-11-15T02:55:52.723Z,84.74
2022-11-15T02:56:52.724Z,84.74
2022-11-15T02:57:52.758Z,84.33
2022-11-15T02:58:52.693Z,84.23
2022-11-15T02:59:52.686Z,84.58
2022-11-15T03:00:52.787Z,85.28
2022-11-15T03:01:52.745Z,85.80
2022-11-15T03:02:52.657Z,85.80
2022-11-15T03:03:52.663Z,85.69
2022-11-15T03:04:52.625Z,85.60
2022-11-15T03:05:52.621Z,85.69
2022-11-15T03:06:52.700Z,85.49
2022-11-15T03:07:53.991Z,85.28
2022-11-15T03:08:52.576Z,85.28
2022-11-15T03:09:52.593Z,85.08
2022-11-15T03:10:52.573Z,85.39
2022-11-15T03:11:52.543Z,84.67
2022-11-15T03:12:52.538Z,84.27
2022-11-15T03:13:52.532Z,84.78
2022-11-15T03:14:52.533Z,83.86
2022-11-15T03:15:52.537Z,84.67
2022-11-15T03:16:52.482Z,83.72
2022-11-15T03:17:52.482Z,83.96
2022-11-15T03:18:52.483Z,84.58
2022-11-15T03:19:52.463Z,84.78
2022-11-15T03:20:52.442Z,84.47
2022-11-15T03:21:52.489Z,83.96
2022-11-15T03:22:52.423Z,84.27
2022-11-15T03:23:52.410Z,83.82
2022-11-15T03:24:52.393Z,83.86
2022-11-15T03:25:52.404Z,84.17
2022-11-15T03:26:52.372Z,84.37
2022-11-15T03:27:52.413Z,84.06
2022-11-15T03:28:52.347Z,83.76
2022-11-15T03:29:52.342Z,83.96
2022-11-15T03:30:52.327Z,83.65
2022-11-15T03:31:52.314Z,83.76
2022-11-15T03:32:52.335Z,83.96
2022-11-15T03:33:52.334Z,83.76
2022-11-15T03:34:52.294Z,83.76
2022-11-15T03:35:52.275Z,83.76
2022-11-15T03:36:52.253Z,83.45
2022-11-15T03:37:52.326Z,83.25
2022-11-15T03:38:52.257Z,82.90
2022-11-15T03:39:52.276Z,83.31
2022-11-15T03:40:52.217Z,82.80
2022-11-15T03:41:52.202Z,83.21
2022-11-15T03:42:52.191Z,83.25
2022-11-15T03:43:52.224Z,83.86
2022-11-15T03:44:52.198Z,83.86
2022-11-15T03:45:52.164Z,83.76
2022-11-15T03:46:52.163Z,83.96
2022-11-15T03:47:52.124Z,84.06
2022-11-15T03:48:52.116Z,83.45
2022-11-15T03:49:52.124Z,83.86
2022-11-15T03:50:52.124Z,83.31
2022-11-15T03:51:52.093Z,83.01
2022-11-15T03:52:52.090Z,83.01
2022-11-15T03:53:52.075Z,83.25
2022-11-15T03:54:52.074Z,83.21
2022-11-15T03:55:52.073Z,83.11
2022-11-15T03:56:52.027Z,83.04
2022-11-15T03:57:52.023Z,83.25
2022-11-15T03:58:52.011Z,82.90
2022-11-15T03:59:52.016Z,83.31
2022-11-15T04:00:52.025Z,82.90
2022-11-15T04:01:51.994Z,82.40
2022-11-15T04:02:51.955Z,81.99
2022-11-15T04:03:52.014Z,81.88
2022-11-15T04:04:51.937Z,81.88
2022-11-15T04:05:51.969Z,81.88
2022-11-15T04:06:51.978Z,81.99
2022-11-15T04:07:51.905Z,82.40
2022-11-15T04:08:51.951Z,82.60
2022-11-15T04:09:51.887Z,82.94
2022-11-15T04:10:51.866Z,82.74
2022-11-15T04:11:51.867Z,83.45
2022-11-15T04:12:51.884Z,83.56
2022-11-15T04:13:51.860Z,83.25
2022-11-15T04:14:51.841Z,83.15
2022-11-15T04:15:51.815Z,83.45
2022-11-15T04:16:51.798Z,83.15
2022-11-15T04:17:51.815Z,83.39
2022-11-15T04:18:51.806Z,83.80
2022-11-15T04:19:51.794Z,84.20
2022-11-15T04:20:51.753Z,84.00
2022-11-15T04:21:51.764Z,84.00
2022-11-15T04:22:51.725Z,84.00
2022-11-15T04:23:51.724Z,83.86
2022-11-15T04:24:51.745Z,83.25
2022-11-15T04:25:51.705Z,82.74
2022-11-15T04:26:51.726Z,82.74
2022-11-15T04:27:51.697Z,82.74
2022-11-15T04:28:51.665Z,82.64
2022-11-15T04:29:51.666Z,82.74
2022-11-15T04:30:51.666Z,82.54
2022-11-15T04:31:51.637Z,82.64
2022-11-15T04:32:51.616Z,83.15
2022-11-15T04:33:51.664Z,82.74
2022-11-15T04:34:51.609Z,82.98
2022-11-15T04:35:51.578Z,82.88
2022-11-15T04:36:51.634Z,83.18
2022-11-15T04:37:51.554Z,83.29
2022-11-15T04:38:51.618Z,83.18
2022-11-15T04:39:51.538Z,83.18
2022-11-15T04:40:51.526Z,83.09
2022-11-15T04:41:51.552Z,83.09
2022-11-15T04:42:51.525Z,83.49
2022-11-15T04:43:51.486Z,85.16
2022-11-15T04:44:51.475Z,86.18
2022-11-15T04:45:51.468Z,86.18
2022-11-15T04:46:51.468Z,86.18
2022-11-15T04:47:51.533Z,86.18
2022-11-15T04:48:56.907Z,86.59
2022-11-15T04:49:52.414Z,86.90
2022-11-15T04:50:51.458Z,87.00
2022-11-15T04:51:51.400Z,86.90
2022-11-15T04:52:51.445Z,86.80
2022-11-15T04:53:51.413Z,86.90
2022-11-15T04:54:51.366Z,86.80
2022-11-15T04:55:51.392Z,87.35
2022-11-15T04:56:51.354Z,87.61
2022-11-15T04:57:51.335Z,86.90
2022-11-15T04:58:51.332Z,86.59
2022-11-15T04:59:51.326Z,85.98
2022-11-15T05:00:51.359Z,86.29
2022-11-15T05:01:51.275Z,85.98
2022-11-15T05:02:51.371Z,85.98
2022-11-15T05:03:51.265Z,85.98
2022-11-15T05:04:51.306Z,85.98
2022-11-15T05:05:51.255Z,86.18
2022-11-15T05:06:51.300Z,86.18
2022-11-15T05:07:51.268Z,87.04
2022-11-15T05:08:51.204Z,87.35
2022-11-15T05:09:51.273Z,88.41
2022-11-15T05:10:51.230Z,89.02
2022-11-15T05:11:51.177Z,89.32
2022-11-15T05:12:51.177Z,89.12
2022-11-15T05:13:51.143Z,89.63
2022-11-15T05:14:51.137Z,89.73
2022-11-15T05:15:51.114Z,88.71
2022-11-15T05:16:51.160Z,89.02
2022-11-15T05:17:51.104Z,89.32
2022-11-15T05:18:51.174Z,89.32
2022-11-15T05:19:51.078Z,88.92
2022-11-15T05:20:51.064Z,88.82
2022-11-15T05:21:51.045Z,89.53
2022-11-15T05:22:51.124Z,90.35
2022-11-15T05:23:51.037Z,90.04
2022-11-15T05:24:51.052Z,89.73
2022-11-15T05:25:51.007Z,89.28
2022-11-15T05:26:51.014Z,88.57
2022-11-15T05:27:50.985Z,88.17
2022-11-15T05:28:51.065Z,87.76
2022-11-15T05:29:50.965Z,88.26
2022-11-15T05:30:50.963Z,88.00
2022-11-15T05:31:50.983Z,88.31
2022-11-15T05:32:50.926Z,87.96
2022-11-15T05:33:50.917Z,87.90
2022-11-15T05:34:50.934Z,87.90
2022-11-15T05:35:50.956Z,87.90
2022-11-15T05:36:50.892Z,87.79
2022-11-15T05:37:50.960Z,88.20
2022-11-15T05:38:50.866Z,88.45
2022-11-15T05:39:50.870Z,88.35
2022-11-15T05:40:50.896Z,88.96
2022-11-15T05:41:50.823Z,89.17
2022-11-15T05:42:50.867Z,88.76
2022-11-15T05:43:50.806Z,88.65
2022-11-15T05:44:50.799Z,88.65
2022-11-15T05:45:50.776Z,88.45
2022-11-15T05:46:50.794Z,88.79
2022-11-15T05:47:50.759Z,89.00
2022-11-15T05:48:50.742Z,89.00
2022-11-15T05:49:50.777Z,88.79
2022-11-15T05:50:50.734Z,88.90
2022-11-15T05:51:50.710Z,88.84
2022-11-15T05:52:50.899Z,89.56
2022-11-15T05:53:50.698Z,90.99
2022-11-15T05:54:50.675Z,91.74
2022-11-15T05:55:50.665Z,92.05
2022-11-15T05:56:50.648Z,92.05
2022-11-15T05:57:50.746Z,91.85
2022-11-15T05:58:51.408Z,91.13
2022-11-15T05:59:50.620Z,91.03
2022-11-15T06:00:50.603Z,90.82
2022-11-15T06:01:50.635Z,90.52
2022-11-15T06:02:50.591Z,90.21
2022-11-15T06:03:50.595Z,91.27
2022-11-15T06:04:50.565Z,91.89
2022-11-15T06:05:50.545Z,91.89
2022-11-15T06:06:50.571Z,92.10
2022-11-15T06:07:50.531Z,91.99
2022-11-15T06:08:50.520Z,91.89
2022-11-15T06:09:50.524Z,91.89
2022-11-15T06:10:50.498Z,91.48
2022-11-15T06:11:50.491Z,91.42
2022-11-15T06:12:50.473Z,92.24
2022-11-15T06:13:50.466Z,92.03
2022-11-15T06:14:50.550Z,92.03
2022-11-15T06:15:50.497Z,92.03
2022-11-15T06:16:50.424Z,92.03
2022-11-15T06:17:50.465Z,91.83
2022-11-15T06:18:50.569Z,93.20
2022-11-15T06:19:50.495Z,94.29
2022-11-15T06:20:50.384Z,94.59
2022-11-15T06:21:50.384Z,93.98
2022-11-15T06:22:50.367Z,93.06
2022-11-15T06:23:50.395Z,94.08
2022-11-15T06:24:50.373Z,94.49
2022-11-15T06:25:50.353Z,95.21
2022-11-15T06:26:50.334Z,95.62
2022-11-15T06:27:50.452Z,95.10
2022-11-15T06:28:50.303Z,94.59
2022-11-15T06:29:50.298Z,94.08
2022-11-15T06:30:53.204Z,93.98
2022-11-15T06:31:50.366Z,95.00
2022-11-15T06:32:50.274Z,95.10
2022-11-15T06:33:50.364Z,95.05
2022-11-15T06:34:50.255Z,94.84
2022-11-15T06:35:50.289Z,95.46
2022-11-15T06:36:51.324Z,95.66
2022-11-15T06:37:50.207Z,96.38
2022-11-15T06:38:50.384Z,96.69
2022-11-15T06:39:50.189Z,96.17
2022-11-15T06:40:50.301Z,95.66
2022-11-15T06:41:50.137Z,95.62
2022-11-15T06:42:50.151Z,94.70
2022-11-15T06:43:50.127Z,94.49
2022-11-15T06:44:50.171Z,94.49
2022-11-15T06:45:50.125Z,94.49
2022-11-15T06:46:50.097Z,94.29
2022-11-15T06:47:50.078Z,94.29
2022-11-15T06:48:50.080Z,94.90
2022-11-15T06:49:50.083Z,94.59
2022-11-15T06:50:50.063Z,94.65
2022-11-15T06:51:50.042Z,94.65
2022-11-15T06:52:50.069Z,95.57
2022-11-15T06:53:50.012Z,95.88
2022-11-15T06:54:49.993Z,96.14
2022-11-15T06:55:54.873Z,95.84
2022-11-15T06:56:51.096Z,96.25
2022-11-15T06:57:49.968Z,96.14
2022-11-15T06:58:49.956Z,95.63
2022-11-15T06:59:49.954Z,95.53
2022-11-15T07:00:50.094Z,95.94
2022-11-15T07:01:49.997Z,95.53
2022-11-15T07:02:49.937Z,95.28
2022-11-15T07:03:49.954Z,95.07
2022-11-15T07:04:49.884Z,94.97
2022-11-15T07:05:49.875Z,94.56
2022-11-15T07:06:49.936Z,94.97
2022-11-15T07:07:49.884Z,94.97
2022-11-15T07:08:49.872Z,95.38
2022-11-15T07:09:49.831Z,95.38
2022-11-15T07:10:49.828Z,95.38
2022-11-15T07:11:49.871Z,94.77
2022-11-15T07:12:49.802Z,94.93
2022-11-15T07:13:49.796Z,94.82
2022-11-15T07:14:49.783Z,94.01
2022-11-15T07:15:49.768Z,93.80
2022-11-15T07:16:49.747Z,93.76
2022-11-15T07:17:49.742Z,93.66
2022-11-15T07:18:49.734Z,92.54
2022-11-15T07:19:49.781Z,92.08
2022-11-15T07:20:49.704Z,91.98
2022-11-15T07:21:49.693Z,91.53
2022-11-15T07:22:50.735Z,90.61
2022-11-15T07:23:49.669Z,90.71
2022-11-15T07:24:49.662Z,90.20
2022-11-15T07:25:49.690Z,89.79
2022-11-15T07:26:49.635Z,89.75
2022-11-15T07:27:49.635Z,89.25
2022-11-15T07:28:49.615Z,88.84
2022-11-15T07:29:49.623Z,88.32
2022-11-15T07:30:49.833Z,88.12
2022-11-15T07:31:49.844Z,88.02
2022-11-15T07:32:49.574Z,87.61
2022-11-15T07:33:49.596Z,87.41
2022-11-15T07:34:49.558Z,87.41
2022-11-15T07:35:49.562Z,87.82
2022-11-15T07:36:49.768Z,87.51
2022-11-15T07:37:49.495Z,86.96
2022-11-15T07:38:49.493Z,86.65
2022-11-15T07:39:49.478Z,86.35
2022-11-15T07:40:49.466Z,85.94
2022-11-15T07:41:49.456Z,85.69
2022-11-15T07:42:49.825Z,85.69
2022-11-15T07:43:49.445Z,85.60
2022-11-15T07:44:49.443Z,86.00
2022-11-15T07:45:50.258Z,85.60
2022-11-15T07:46:49.402Z,85.60
2022-11-15T07:47:49.421Z,85.49
2022-11-15T07:48:49.420Z,85.49
2022-11-15T07:49:49.363Z,85.39
2022-11-15T07:50:49.363Z,84.64
2022-11-15T07:51:49.347Z,84.84
2022-11-15T07:52:49.327Z,84.37
2022-11-15T07:53:49.336Z,84.43
2022-11-15T07:54:49.322Z,84.03
2022-11-15T07:55:49.293Z,83.51
2022-11-15T07:56:49.313Z,83.82
2022-11-15T07:57:49.284Z,83.72
2022-11-15T07:58:49.255Z,83.78
2022-11-15T07:59:49.264Z,83.07
2022-11-15T08:00:49.258Z,82.66
2022-11-15T08:01:49.305Z,81.65
2022-11-15T08:02:49.333Z,81.60
2022-11-15T08:03:49.212Z,81.51
2022-11-15T08:04:49.240Z,80.99
2022-11-15T08:05:49.366Z,80.18
2022-11-15T08:06:49.240Z,80.15
2022-11-15T08:07:50.973Z,79.43
2022-11-15T08:08:49.185Z,78.72
2022-11-15T08:09:49.138Z,78.62
2022-11-15T08:10:49.185Z,78.82
2022-11-15T08:11:49.194Z,78.48
2022-11-15T08:12:49.197Z,77.97
2022-11-15T08:13:49.090Z,77.56
2022-11-15T08:14:49.083Z,77.15
2022-11-15T08:15:53.399Z,74.88
2022-11-15T08:16:50.094Z,72.88
2022-11-15T08:17:49.067Z,70.76
2022-11-15T08:18:49.051Z,70.29
2022-11-15T08:19:49.048Z,71.09
2022-11-15T08:20:49.014Z,70.79
2022-11-15T08:21:48.996Z,70.79
2022-11-15T08:22:49.117Z,70.86
2022-11-15T08:23:49.181Z,70.42
2022-11-15T08:24:48.986Z,68.94
2022-11-15T08:25:48.948Z,68.67
2022-11-15T08:26:49.061Z,68.80
2022-11-15T08:27:48.966Z,69.31
2022-11-15T08:28:48.930Z,69.71
2022-11-15T08:29:48.917Z,69.85
2022-11-15T08:30:48.906Z,70.45
2022-11-15T08:31:48.887Z,70.65
2022-11-15T08:32:48.878Z,70.25
2022-11-15T08:33:48.885Z,70.69
2022-11-15T08:34:48.847Z,70.39
2022-11-15T08:35:48.858Z,71.13
2022-11-15T08:36:48.838Z,71.44
2022-11-15T08:37:48.820Z,71.97
2022-11-15T08:38:48.812Z,71.88
2022-11-15T08:39:48.805Z,72.41
2022-11-15T08:40:48.786Z,72.89
2022-11-15T08:41:48.781Z,72.92
2022-11-15T08:42:48.756Z,72.92
2022-11-15T08:43:48.743Z,72.99
2022-11-15T08:44:48.725Z,72.61
2022-11-15T08:45:48.749Z,74.27
2022-11-15T08:46:48.707Z,74.17
2022-11-15T08:47:54.019Z,74.58
2022-11-15T08:48:49.687Z,74.44
2022-11-15T08:49:48.680Z,73.60
2022-11-15T08:50:48.666Z,73.39
2022-11-15T08:51:48.679Z,73.53
2022-11-15T08:52:48.647Z,73.49
2022-11-15T08:53:48.741Z,73.25
2022-11-15T08:54:48.623Z,72.24
2022-11-15T08:55:48.618Z,72.28
2022-11-15T08:56:48.605Z,72.68
2022-11-15T08:57:48.608Z,73.33
2022-11-15T08:58:49.352Z,73.53
2022-11-15T08:59:48.705Z,73.63
2022-11-15T09:00:48.550Z,73.83
2022-11-15T09:01:48.611Z,74.10
2022-11-15T09:02:48.608Z,73.29
2022-11-15T09:03:48.525Z,73.05
2022-11-15T09:04:48.497Z,73.05
2022-11-15T09:05:48.517Z,72.55
2022-11-15T09:06:48.503Z,72.45
2022-11-15T09:07:48.470Z,72.34
2022-11-15T09:08:56.903Z,73.09
2022-11-15T09:09:49.469Z,73.16
2022-11-15T09:10:48.444Z,72.85
2022-11-15T09:11:48.451Z,72.61
2022-11-15T09:12:48.428Z,71.91
2022-11-15T09:13:48.411Z,71.60
2022-11-15T09:14:48.419Z,72.45
2022-11-15T09:15:48.384Z,72.65
2022-11-15T09:16:48.370Z,73.25
2022-11-15T09:17:48.359Z,72.72
2022-11-15T09:18:48.339Z,72.01
2022-11-15T09:19:48.379Z,72.31
2022-11-15T09:20:48.360Z,72.11
2022-11-15T09:21:48.341Z,71.60
2022-11-15T09:22:48.301Z,71.80
2022-11-15T09:23:48.287Z,71.88
2022-11-15T09:24:48.336Z,71.37
2022-11-15T09:25:48.308Z,71.13
2022-11-15T09:26:48.250Z,70.96
2022-11-15T09:27:48.259Z,70.96
2022-11-15T09:28:48.258Z,71.60
2022-11-15T09:29:48.235Z,71.70
2022-11-15T09:30:48.210Z,72.11
2022-11-15T09:31:48.211Z,71.60
2022-11-15T09:32:48.191Z,72.11
2022-11-15T09:33:48.171Z,71.91
2022-11-15T09:34:48.165Z,71.57
2022-11-15T09:35:48.150Z,71.33
2022-11-15T09:36:48.182Z,71.23
2022-11-15T09:37:52.211Z,70.93
2022-11-15T09:38:49.108Z,70.93
2022-11-15T09:39:48.101Z,70.96
2022-11-15T09:40:48.099Z,71.70
2022-11-15T09:41:48.079Z,71.70
2022-11-15T09:42:48.089Z,72.01
2022-11-15T09:43:48.060Z,72.45
2022-11-15T09:44:48.060Z,73.09
2022-11-15T09:45:48.077Z,73.60
2022-11-15T09:46:48.071Z,73.29
2022-11-15T09:47:48.011Z,73.63
2022-11-15T09:48:48.030Z,74.04
2022-11-15T09:49:47.990Z,74.58
2022-11-15T09:50:48.012Z,74.68
2022-11-15T09:51:48.077Z,74.88
2022-11-15T09:52:47.940Z,74.74
2022-11-15T09:54:30.262Z,74.41
2022-11-15T09:54:53.811Z,73.90
2022-11-15T09:55:48.957Z,73.39
2022-11-15T09:56:47.910Z,73.90
2022-11-15T09:57:47.901Z,73.90
2022-11-15T09:58:47.891Z,73.70
2022-11-15T09:59:47.900Z,73.49
2022-11-15T10:00:48.472Z,73.80
2022-11-15T10:01:47.986Z,73.80
2022-11-15T10:02:47.842Z,73.70
2022-11-15T10:03:47.831Z,73.70
2022-11-15T10:04:47.832Z,73.66
2022-11-15T10:05:47.833Z,73.05
2022-11-15T10:06:47.811Z,73.16
2022-11-15T10:07:47.780Z,73.32
2022-11-15T10:08:47.784Z,72.81
2022-11-15T10:09:47.762Z,72.08
2022-11-15T10:10:47.751Z,71.33
2022-11-15T10:11:47.751Z,70.69
2022-11-15T10:12:47.721Z,70.39
2022-11-15T10:13:47.718Z,70.39
2022-11-15T10:14:53.200Z,69.95
2022-11-15T10:15:48.732Z,69.78
2022-11-15T10:16:47.702Z,70.52
2022-11-15T10:17:47.671Z,70.56
2022-11-15T10:18:47.659Z,71.26
2022-11-15T10:19:47.642Z,71.06
2022-11-15T10:20:47.652Z,71.06
2022-11-15T10:21:47.632Z,71.47
2022-11-15T10:22:47.635Z,70.93
2022-11-15T10:23:47.597Z,70.32
2022-11-15T10:24:47.583Z,70.32
2022-11-15T10:25:47.574Z,70.29
2022-11-15T10:26:47.565Z,69.71
2022-11-15T10:27:47.604Z,70.32
2022-11-15T10:28:47.542Z,69.92
2022-11-15T10:29:47.553Z,70.52
2022-11-15T10:30:47.512Z,70.45
2022-11-15T10:31:47.502Z,70.62
2022-11-15T10:32:47.555Z,70.62
2022-11-15T10:33:47.483Z,70.73
2022-11-15T10:34:47.466Z,71.09
2022-11-15T10:35:47.464Z,71.17
2022-11-15T10:36:50.264Z,70.05
2022-11-15T10:37:47.433Z,71.06
2022-11-15T10:38:47.435Z,70.56
2022-11-15T10:39:47.428Z,69.75
2022-11-15T10:40:47.434Z,69.31
2022-11-15T10:41:47.399Z,69.01
2022-11-15T10:42:47.378Z,68.40
2022-11-15T10:43:47.384Z,68.84
2022-11-15T10:44:47.353Z,69.31
2022-11-15T10:45:47.344Z,68.17
2022-11-15T10:46:47.860Z,68.00
2022-11-15T10:47:47.342Z,69.04
2022-11-15T10:48:47.308Z,69.48
2022-11-15T10:49:47.347Z,69.45
2022-11-15T10:50:47.276Z,69.04
2022-11-15T10:51:47.327Z,69.45
2022-11-15T10:52:47.254Z,69.34
2022-11-15T10:53:47.247Z,69.78
2022-11-15T10:54:47.233Z,70.09
2022-11-15T10:55:47.262Z,69.34
2022-11-15T10:56:47.236Z,69.34
2022-11-15T10:57:47.209Z,68.91
2022-11-15T10:58:47.187Z,68.51
2022-11-15T10:59:47.193Z,68.27
2022-11-15T11:00:47.197Z,67.26
2022-11-15T11:01:47.220Z,67.90
2022-11-15T11:02:47.167Z,68.84
2022-11-15T11:03:47.146Z,69.34
2022-11-15T11:04:47.126Z,69.42
2022-11-15T11:05:47.125Z,69.18
2022-11-15T11:06:47.143Z,68.24
2022-11-15T11:07:47.086Z,67.13
2022-11-15T11:08:47.307Z,67.19
2022-11-15T11:09:47.076Z,66.66
2022-11-15T11:10:52.230Z,66.99
2022-11-15T11:11:48.136Z,66.79
2022-11-15T11:12:47.040Z,66.46
2022-11-15T11:13:47.030Z,66.42
2022-11-15T11:14:46.999Z,65.78
2022-11-15T11:15:47.008Z,66.29
2022-11-15T11:16:46.976Z,66.79
2022-11-15T11:17:46.986Z,66.69
2022-11-15T11:18:46.955Z,66.69
2022-11-15T11:19:46.948Z,67.26
2022-11-15T11:20:46.933Z,67.97
2022-11-15T11:21:46.930Z,67.83
2022-11-15T11:22:47.015Z,68.07
2022-11-15T11:23:46.904Z,68.80
2022-11-15T11:24:46.895Z,68.77
2022-11-15T11:25:46.875Z,68.87
2022-11-15T11:26:46.865Z,68.27
2022-11-15T11:27:46.864Z,67.93
2022-11-15T11:28:46.866Z,68.07
2022-11-15T11:29:46.846Z,68.27
2022-11-15T11:30:46.817Z,68.57
2022-11-15T11:31:46.807Z,68.27
2022-11-15T11:32:49.279Z,68.17
2022-11-15T11:33:46.795Z,68.04
2022-11-15T11:34:46.800Z,68.04
2022-11-15T11:35:46.769Z,68.33
2022-11-15T11:36:46.746Z,67.93
2022-11-15T11:37:46.738Z,67.53
2022-11-15T11:38:46.738Z,67.63
2022-11-15T11:39:46.719Z,67.93
2022-11-15T11:40:46.740Z,67.93
2022-11-15T11:41:46.690Z,68.27
2022-11-15T11:42:46.692Z,69.11
2022-11-15T11:43:46.668Z,69.11
2022-11-15T11:44:46.665Z,69.31
2022-11-15T11:45:47.415Z,70.05
2022-11-15T11:46:46.648Z,70.02
2022-11-15T11:47:46.633Z,69.68
2022-11-15T11:48:46.614Z,69.08
2022-11-15T11:49:46.605Z,69.51
2022-11-15T11:50:46.588Z,69.68
2022-11-15T11:51:46.606Z,69.48
2022-11-15T11:52:46.563Z,68.87
2022-11-15T11:53:46.666Z,68.87
2022-11-15T11:54:46.536Z,68.64
2022-11-15T11:55:46.539Z,67.90
2022-11-15T11:56:46.520Z,67.90
2022-11-15T11:57:46.529Z,67.70
2022-11-15T11:58:46.491Z,67.57
2022-11-15T11:59:46.489Z,67.33
2022-11-15T12:00:46.489Z,66.22
2022-11-15T12:01:46.567Z,67.27
2022-11-15T12:02:46.644Z,67.80
2022-11-15T12:03:46.500Z,68.10
2022-11-15T12:04:46.435Z,67.90
2022-11-15T12:05:46.410Z,68.04
2022-11-15T12:06:46.479Z,68.10
2022-11-15T12:07:46.399Z,67.67
2022-11-15T12:08:46.431Z,67.60
2022-11-15T12:09:46.391Z,67.80
2022-11-15T12:10:46.361Z,68.30
2022-11-15T12:11:46.349Z,67.47
2022-11-15T12:12:46.341Z,67.70
2022-11-15T12:13:46.332Z,68.33
2022-11-15T12:14:46.340Z,68.44
2022-11-15T12:15:46.310Z,68.87
2022-11-15T12:16:46.281Z,69.58
2022-11-15T12:17:46.293Z,69.48
2022-11-15T12:18:46.270Z,69.71
2022-11-15T12:19:46.270Z,70.56
2022-11-15T12:20:46.301Z,71.47
2022-11-15T12:21:46.296Z,71.47
2022-11-15T12:22:46.224Z,71.77
2022-11-15T12:23:46.214Z,71.26
2022-11-15T12:24:46.213Z,71.57
2022-11-15T12:25:46.205Z,71.33
2022-11-15T12:26:46.233Z,71.03
2022-11-15T12:27:46.172Z,70.53
2022-11-15T12:29:05.776Z,70.73
2022-11-15T12:29:47.151Z,70.73
2022-11-15T12:30:46.131Z,71.03
2022-11-15T12:31:46.123Z,70.49
2022-11-15T12:32:46.143Z,70.15
2022-11-15T12:33:46.103Z,69.95
2022-11-15T12:34:46.107Z,69.55
2022-11-15T12:35:46.101Z,69.95
2022-11-15T12:36:46.083Z,69.95
2022-11-15T12:37:46.052Z,69.82
2022-11-15T12:38:46.096Z,69.18
2022-11-15T12:39:46.022Z,68.17
2022-11-15T12:40:46.014Z,68.17
2022-11-15T12:41:46.016Z,68.48
2022-11-15T12:42:46.000Z,68.57
2022-11-15T12:43:45.985Z,68.77
2022-11-15T12:44:45.995Z,68.37
2022-11-15T12:45:45.962Z,68.95
2022-11-15T12:46:45.943Z,69.75
2022-11-15T12:47:45.934Z,69.85
2022-11-15T12:48:45.943Z,69.52
2022-11-15T12:49:46.072Z,69.31
2022-11-15T12:50:45.902Z,69.35
2022-11-15T12:51:45.892Z,70.29
2022-11-15T12:52:45.873Z,70.39